Monday, October 16, 2017, 4:54 PM CDT
Back to Local

KHUT, Hutchinson Municipal Airport

Location: Hutchinson, KS, United States Lat: 38.067
Local Time: 4:54 PM CDT (21:54 GMT) Lon: -97.867
Time Zone: US/Central Elev: 1541 ft

Show me the last for .
Show Decoded

2017-10-16 15:52 METAR KHUT 162052Z 19015G20KT 10SM CLR 22/03 A3025 RMK AO2 SLP235 T02220028
                 56034 $ =
2017-10-16 14:52 METAR KHUT 161952Z 20013KT 10SM CLR 23/02 A3027 RMK AO2 PK WND 19026/1931 SLP242
                 T02280022 $ =
2017-10-16 13:52 METAR KHUT 161852Z 19015G22KT 10SM CLR 22/03 A3032 RMK AO2 SLP257 T02220028 $ =
2017-10-16 12:52 METAR KHUT 161752Z 17013KT 10SM CLR 21/04 A3035 RMK AO2 SLP270 T02060044 10211
                 20011 58017 $ =
2017-10-16 11:52 METAR KHUT 161652Z 21010KT 10SM CLR 19/04 A3038 RMK AO2 SLP281 T01890044 $ =
2017-10-16 10:52 METAR KHUT 161552Z 22009KT 10SM CLR 16/05 A3040 RMK AO2 SLP289 T01560050 =
2017-10-16 09:52 METAR KHUT 161452Z 19005KT 10SM CLR 12/06 A3040 RMK AO2 SLP293 T01170056 53003 =
2017-10-16 08:52 METAR KHUT 161352Z 00000KT 10SM CLR 08/06 A3040 RMK AO2 SLP294 T00780056 =
2017-10-16 07:52 METAR KHUT 161252Z 00000KT 10SM CLR 02/01 A3039 RMK AO2 SLP293 T00220011 =
2017-10-16 06:52 METAR KHUT 161152Z 00000KT 10SM CLR 03/02 A3040 RMK AO2 SLP290 T00280022 10044
                 20022 55001 =
2017-10-16 05:52 METAR KHUT 161052Z AUTO 00000KT 10SM CLR 03/02 A3039 RMK AO2 SLP286 T00280022 =
2017-10-16 04:52 METAR KHUT 160952Z AUTO 00000KT 10SM CLR 02/02 A3039 RMK AO2 SLP287 T00220022 =
2017-10-16 03:52 METAR KHUT 160852Z AUTO 00000KT 10SM CLR 03/03 A3040 RMK AO2 SLP288 T00280028
                 50001 =
2017-10-16 02:52 METAR KHUT 160752Z AUTO 00000KT 10SM CLR 03/02 A3040 RMK AO2 SLP290 T00280022 =
2017-10-16 01:52 METAR KHUT 160652Z AUTO 00000KT 10SM CLR 04/03 A3040 RMK AO2 SLP290 T00390033 =
2017-10-16 00:52 METAR KHUT 160552Z AUTO 00000KT 10SM CLR 04/04 A3039 RMK AO2 SLP289 T00440039
                 10133 20028 401830028 50001 =
2017-10-15 23:52 METAR KHUT 160452Z AUTO 00000KT 10SM CLR 04/03 A3040 RMK AO2 SLP289 T00390028 =
2017-10-15 22:52 METAR KHUT 160352Z 00000KT 10SM CLR 04/03 A3040 RMK AO2 SLP290 T00440033 =
2017-10-15 21:52 METAR KHUT 160252Z 00000KT 10SM CLR 05/03 A3039 RMK AO2 SLP289 T00500033 51006 =
2017-10-15 20:52 METAR KHUT 160152Z 00000KT 10SM CLR 06/04 A3039 RMK AO2 SLP290 T00560039 =
2017-10-15 19:52 METAR KHUT 160052Z 00000KT 10SM CLR 07/05 A3038 RMK AO2 SLP289 T00670050 =
2017-10-15 18:52 METAR KHUT 152352Z 33003KT 10SM CLR 14/04 A3037 RMK AO2 SLP280 T01390039 10183
                 20133 56006 =
2017-10-15 17:52 METAR KHUT 152252Z 34008KT 10SM CLR 17/00 A3038 RMK AO2 SLP280 T01720000 =

Support USWX by starting your Amazon purchase here.